Brighton, Michigan
Current Conditions -  °F | °C
As of 3:55 PM on Thursday 27 Nov 2014 (Local Time) from KOZW Reporting Station
Light Snow Light Snow  
Wind Chill: 20°   Ceiling: 2700
Heat Index: 29°   Visibility: 7mi
Dew Point: 23°   Wind: 9mph
Humidity: 77%   Direction: 330°NNW
Pressure: 30.18"   Gusts: NA
Location:  42.53°N, 83.78°W
Report Text: KOZW 272055Z AUTO 33008KT 7SM -SN SCT020 BKN027 OVC034 M02/M05 A3018 RMK AO2 T10171052
Loading
Personal Weather Stations






























Interactive Weather Map New forecast layout! Learn more

10-Day Weather Forecast

Advertisements
Track Severe Weather on mobile